Time;durP1;ratioP1;P1;durP2;ratioP2;P2;SDS_P1;SDS_P2;PMS_P1;PMS_P2;Temp;Humidity;BMP_temperature;BMP_pressure;BME280_temperature;BME280_humidity;BME280_pressure;Samples;Min_cycle;Max_cycle;Signal;HPM_P1;HPM_P2
2024/02/02 00:02:12;;;;;;;65.65;18.10;;;10.70;99.90;;;;;;5048464;28;20088;-49
2024/02/02 00:04:38;;;;;;;80.30;18.17;;;10.70;99.90;;;;;;5048522;28;20036;-48
2024/02/02 00:07:04;;;;;;;78.90;18.83;;;10.60;99.90;;;;;;5047126;28;20018;-49
2024/02/02 00:09:29;;;;;;;65.50;18.63;;;10.60;99.90;;;;;;5062811;28;20033;-49
2024/02/02 00:11:55;;;;;;;62.30;17.60;;;10.60;99.90;;;;;;5068150;28;20117;-49
2024/02/02 00:14:21;;;;;;;81.38;17.40;;;10.60;99.90;;;;;;5068497;28;20032;-49
2024/02/02 00:16:46;;;;;;;84.40;19.35;;;10.60;99.90;;;;;;5066739;28;20036;-48
2024/02/02 00:19:12;;;;;;;64.10;16.65;;;10.60;99.90;;;;;;5048488;28;20037;-49
2024/02/02 00:21:37;;;;;;;74.50;18.58;;;10.60;99.90;;;;;;5062671;28;20045;-49
2024/02/02 00:24:03;;;;;;;57.28;16.77;;;10.60;99.90;;;;;;5083537;28;20064;-49
2024/02/02 00:26:29;;;;;;;76.15;17.25;;;10.60;99.90;;;;;;5062593;28;20106;-49
2024/02/02 00:28:54;;;;;;;69.80;18.00;;;10.50;99.90;;;;;;5046589;28;20068;-49
2024/02/02 00:31:21;;;;;;;69.28;16.90;;;10.50;99.90;;;;;;5029980;28;20033;-49
2024/02/02 00:33:50;;;;;;;53.85;16.02;;;10.50;99.90;;;;;;5047925;28;20041;-49
2024/02/02 00:36:15;;;;;;;64.07;17.60;;;10.50;99.90;;;;;;5055699;28;20036;-48
2024/02/02 00:38:41;;;;;;;53.50;16.08;;;10.50;99.90;;;;;;5067672;28;20063;-49
2024/02/02 00:41:07;;;;;;;63.97;16.38;;;10.50;99.90;;;;;;5067722;28;20025;-49
2024/02/02 00:43:34;;;;;;;55.58;15.52;;;10.50;99.90;;;;;;5066348;28;20067;-49
2024/02/02 00:45:59;;;;;;;76.15;17.00;;;10.40;99.90;;;;;;5050953;28;20029;-49
2024/02/02 00:48:25;;;;;;;69.18;16.23;;;10.40;99.90;;;;;;5046401;28;20034;-49
2024/02/02 00:50:50;;;;;;;63.40;17.38;;;10.40;99.90;;;;;;5047345;28;20026;-48
2024/02/02 00:53:16;;;;;;;48.53;15.00;;;10.40;99.90;;;;;;5047085;28;20041;-49
2024/02/02 00:55:41;;;;;;;49.55;16.33;;;10.40;99.90;;;;;;5067363;28;20036;-49
2024/02/02 00:58:07;;;;;;;58.78;16.45;;;10.40;99.90;;;;;;5082858;28;20093;-49
2024/02/02 01:00:33;;;;;;;50.85;16.90;;;10.40;99.90;;;;;;5067209;28;20440;-49
2024/02/02 01:02:58;;;;;;;59.00;16.35;;;10.40;99.90;;;;;;5061555;28;20474;-49
2024/02/02 01:05:24;;;;;;;54.17;16.30;;;10.40;99.90;;;;;;5046126;28;20034;-49
2024/02/02 01:07:50;;;;;;;46.10;16.15;;;10.40;99.90;;;;;;5045888;28;20083;-49
2024/02/02 01:10:16;;;;;;;45.35;14.77;;;10.40;99.90;;;;;;5045842;28;20053;-48
2024/02/02 01:12:45;;;;;;;50.80;14.98;;;10.40;99.90;;;;;;5057316;28;20033;-49
2024/02/02 01:15:11;;;;;;;45.45;15.55;;;10.30;99.90;;;;;;5065898;28;20029;-49
2024/02/02 01:17:37;;;;;;;50.92;15.23;;;10.30;99.90;;;;;;5067170;28;20190;-48
2024/02/02 01:20:03;;;;;;;43.45;14.52;;;10.30;99.90;;;;;;5067092;28;20039;-48
2024/02/02 01:22:33;;;;;;;56.55;16.10;;;10.30;99.90;;;;;;5048569;28;20097;-48
2024/02/02 01:24:59;;;;;;;49.10;15.60;;;10.30;99.90;;;;;;5045599;28;20025;-49
2024/02/02 01:27:24;;;;;;;52.30;16.42;;;10.30;99.90;;;;;;5046673;28;20047;-49
2024/02/02 01:29:50;;;;;;;46.33;15.15;;;10.30;99.90;;;;;;5048891;28;20119;-48
2024/02/02 01:32:16;;;;;;;49.58;15.23;;;10.30;99.90;;;;;;5066779;28;20033;-48
2024/02/02 01:34:41;;;;;;;54.78;16.23;;;10.20;99.90;;;;;;5066614;28;20044;-48
2024/02/02 01:37:07;;;;;;;41.65;14.43;;;10.20;99.90;;;;;;5066574;28;20045;-48
2024/02/02 01:39:32;;;;;;;52.45;15.18;;;10.20;99.90;;;;;;5057489;28;20033;-49
2024/02/02 01:41:59;;;;;;;55.20;14.77;;;10.20;99.90;;;;;;5046685;28;20021;-49
2024/02/02 01:44:24;;;;;;;47.75;14.23;;;10.20;99.90;;;;;;5046833;28;20049;-49
2024/02/02 01:46:50;;;;;;;40.35;14.95;;;10.20;99.90;;;;;;5045421;28;20033;-49
2024/02/02 01:49:16;;;;;;;40.95;14.60;;;10.20;99.90;;;;;;5057592;28;20037;-48
2024/02/02 01:51:41;;;;;;;44.58;15.07;;;10.20;99.90;;;;;;5065155;28;20025;-48
2024/02/02 01:54:07;;;;;;;46.33;15.45;;;10.20;99.90;;;;;;5065066;28;20100;-49
2024/02/02 01:56:33;;;;;;;47.85;14.30;;;10.20;99.90;;;;;;5065107;28;20025;-49
2024/02/02 01:59:01;;;;;;;44.70;15.30;;;10.20;99.90;;;;;;5063285;28;20056;-48
2024/02/02 02:01:27;;;;;;;35.28;13.48;;;10.20;99.90;;;;;;5028686;28;20052;-48
2024/02/02 02:03:53;;;;;;;45.22;15.10;;;10.20;99.90;;;;;;5044851;28;20030;-49
2024/02/02 02:06:18;;;;;;;43.63;13.68;;;10.20;99.90;;;;;;5049739;28;20106;-48
2024/02/02 02:08:45;;;;;;;49.22;15.30;;;10.20;99.90;;;;;;5081723;28;20033;-48
2024/02/02 02:11:10;;;;;;;46.65;13.75;;;10.20;99.90;;;;;;5081844;28;20032;-49
2024/02/02 02:13:38;;;;;;;39.33;15.05;;;10.20;99.90;;;;;;5064834;28;20064;-49
2024/02/02 02:16:04;;;;;;;47.33;14.23;;;10.20;99.90;;;;;;5071914;28;20025;-49
2024/02/02 02:18:30;;;;;;;38.55;14.20;;;10.10;99.90;;;;;;5045102;28;20033;-49
2024/02/02 02:20:55;;;;;;;39.25;14.73;;;10.10;99.90;;;;;;5046479;28;20029;-48
2024/02/02 02:23:21;;;;;;;36.38;13.82;;;10.10;99.90;;;;;;5046556;28;20040;-49
2024/02/02 02:25:47;;;;;;;36.15;14.25;;;10.10;99.90;;;;;;5060481;28;20021;-48
2024/02/02 02:28:12;;;;;;;40.95;13.65;;;10.10;99.90;;;;;;5064721;28;20492;-48
2024/02/02 02:30:38;;;;;;;38.15;15.00;;;10.10;99.90;;;;;;5064767;28;20036;-48
2024/02/02 02:33:05;;;;;;;37.80;13.55;;;10.10;99.90;;;;;;5065455;28;20037;-48
2024/02/02 02:35:31;;;;;;;37.00;13.68;;;10.10;99.90;;;;;;5061261;28;20033;-49
2024/02/02 02:37:57;;;;;;;34.30;13.57;;;10.10;99.90;;;;;;5044567;28;20033;-48
2024/02/02 02:40:22;;;;;;;36.25;13.95;;;10.10;99.90;;;;;;5046478;28;20029;-49
2024/02/02 02:42:50;;;;;;;42.75;14.57;;;10.00;99.90;;;;;;5054809;28;20041;-49
2024/02/02 02:45:16;;;;;;;41.42;14.30;;;10.00;99.90;;;;;;5051932;28;20116;-49
2024/02/02 02:47:42;;;;;;;39.30;14.15;;;10.00;99.90;;;;;;5085291;28;20040;-49
2024/02/02 02:50:09;;;;;;;33.67;13.70;;;10.00;99.90;;;;;;5068592;28;20112;-49
2024/02/02 02:52:35;;;;;;;31.50;13.10;;;10.00;99.90;;;;;;5058309;28;20037;-49
2024/02/02 02:55:00;;;;;;;29.67;13.20;;;10.00;99.90;;;;;;5048505;28;20034;-48
2024/02/02 02:57:26;;;;;;;33.83;12.65;;;10.00;99.90;;;;;;5048633;28;20037;-49
2024/02/02 02:59:52;;;;;;;41.05;13.60;;;10.00;99.90;;;;;;5048395;28;20025;-49
2024/02/02 03:02:18;;;;;;;36.42;12.88;;;10.00;99.90;;;;;;5048203;28;20033;-49
2024/02/02 03:04:44;;;;;;;33.90;13.10;;;10.00;99.90;;;;;;5068407;28;20040;-49
2024/02/02 03:07:10;;;;;;;35.42;13.55;;;10.00;99.90;;;;;;5069840;28;20028;-48
2024/02/02 03:09:36;;;;;;;36.10;13.13;;;10.00;99.90;;;;;;5066950;28;20044;-49
2024/02/02 03:12:02;;;;;;;39.63;13.55;;;10.00;99.90;;;;;;5050079;28;20053;-48
2024/02/02 03:14:28;;;;;;;36.40;12.13;;;9.90;99.90;;;;;;5049579;28;20026;-49
2024/02/02 03:16:54;;;;;;;33.55;13.85;;;10.00;99.90;;;;;;5049186;28;20041;-48
2024/02/02 03:19:19;;;;;;;30.63;12.10;;;9.90;99.90;;;;;;5055923;28;20029;-49
2024/02/02 03:21:45;;;;;;;28.60;13.18;;;9.90;99.90;;;;;;5084860;28;20020;-49
2024/02/02 03:24:10;;;;;;;27.17;12.70;;;9.90;99.90;;;;;;5067684;28;20087;-49
2024/02/02 03:26:36;;;;;;;29.70;12.85;;;9.90;99.90;;;;;;5069100;28;20518;-49
2024/02/02 03:29:03;;;;;;;31.98;13.80;;;9.90;99.90;;;;;;5055284;28;20072;-48
2024/02/02 03:31:28;;;;;;;33.50;12.73;;;9.90;99.90;;;;;;5047974;28;20033;-48
2024/02/02 03:33:54;;;;;;;29.88;12.57;;;9.90;99.90;;;;;;5048975;28;20036;-49
2024/02/02 03:36:20;;;;;;;28.83;11.88;;;9.90;99.90;;;;;;5048909;28;20063;-49
2024/02/02 03:38:45;;;;;;;34.97;12.68;;;9.90;99.90;;;;;;5066273;28;20495;-49
2024/02/02 03:41:11;;;;;;;25.55;12.02;;;9.90;99.90;;;;;;5050878;28;20067;-49
2024/02/02 03:43:36;;;;;;;24.80;12.15;;;9.90;99.90;;;;;;5067596;28;20048;-49
2024/02/02 03:46:02;;;;;;;24.85;13.02;;;9.90;99.90;;;;;;5065470;28;20029;-49
2024/02/02 03:48:27;;;;;;;25.27;11.82;;;9.90;99.90;;;;;;5048812;28;20030;-48
2024/02/02 03:50:53;;;;;;;29.58;12.52;;;9.90;99.90;;;;;;5048081;28;20025;-48
2024/02/02 03:53:19;;;;;;;25.80;12.27;;;9.90;99.90;;;;;;5030314;28;20120;-48
2024/02/02 03:55:44;;;;;;;28.25;12.45;;;9.90;99.90;;;;;;5055147;28;20124;-49
2024/02/02 03:58:10;;;;;;;35.65;12.07;;;9.90;99.90;;;;;;5068479;28;20040;-48
2024/02/02 04:00:35;;;;;;;24.13;12.07;;;9.90;99.90;;;;;;5068362;28;20033;-49
2024/02/02 04:03:01;;;;;;;31.58;11.63;;;9.80;99.90;;;;;;5067138;28;20029;-49
2024/02/02 04:05:26;;;;;;;27.55;11.93;;;9.80;99.90;;;;;;5053211;28;20052;-48
2024/02/02 04:07:52;;;;;;;33.83;12.32;;;9.80;99.90;;;;;;5046897;28;20040;-49
2024/02/02 04:10:18;;;;;;;23.58;11.95;;;9.80;99.90;;;;;;5046644;28;20032;-48
2024/02/02 04:12:43;;;;;;;21.55;10.82;;;9.80;99.90;;;;;;5048425;28;20045;-48
2024/02/02 04:15:09;;;;;;;27.10;11.43;;;9.80;99.90;;;;;;5048349;28;20021;-49
2024/02/02 04:17:35;;;;;;;31.10;11.30;;;9.80;99.90;;;;;;5046922;28;20041;-49
2024/02/02 04:20:00;;;;;;;26.63;11.50;;;9.80;99.90;;;;;;5046955;28;20077;-48
2024/02/02 04:22:26;;;;;;;30.20;12.25;;;9.80;99.90;;;;;;5048109;28;20025;-48
2024/02/02 04:24:52;;;;;;;23.40;11.40;;;9.80;99.90;;;;;;5048072;28;20036;-48
2024/02/02 04:27:18;;;;;;;26.15;11.20;;;9.80;99.90;;;;;;5046706;28;20025;-48
2024/02/02 04:29:43;;;;;;;22.70;11.50;;;9.80;99.90;;;;;;5046948;28;20509;-48
2024/02/02 04:32:09;;;;;;;21.40;10.90;;;9.70;99.90;;;;;;5046797;28;20032;-48
2024/02/02 04:34:34;;;;;;;25.23;11.80;;;9.70;99.90;;;;;;5046694;28;20052;-48
2024/02/02 04:37:00;;;;;;;21.85;11.63;;;9.70;99.90;;;;;;5047522;28;20485;-49
2024/02/02 04:39:26;;;;;;;26.70;11.55;;;9.70;99.90;;;;;;5046665;28;20049;-49
2024/02/02 04:41:51;;;;;;;24.65;10.80;;;9.70;99.90;;;;;;5046498;28;20058;-48
2024/02/02 04:44:17;;;;;;;18.42;10.88;;;9.70;99.90;;;;;;5047653;28;20441;-48
2024/02/02 04:46:42;;;;;;;23.10;10.98;;;9.70;99.90;;;;;;5046399;28;20021;-49
2024/02/02 04:49:08;;;;;;;27.50;11.23;;;9.70;99.90;;;;;;5046369;28;20033;-48
2024/02/02 04:51:35;;;;;;;20.77;10.77;;;9.60;99.90;;;;;;5047544;28;20029;-48
2024/02/02 04:54:00;;;;;;;23.17;10.82;;;9.70;99.90;;;;;;5047607;28;20113;-49
2024/02/02 04:56:26;;;;;;;25.95;10.88;;;9.70;99.90;;;;;;5029614;28;20120;-49
2024/02/02 04:58:53;;;;;;;28.88;11.50;;;9.60;99.90;;;;;;5029292;28;20104;-49
2024/02/02 05:01:21;;;;;;;21.33;10.63;;;9.70;99.90;;;;;;5046139;28;20014;-48
2024/02/02 05:03:47;;;;;;;26.48;10.82;;;9.60;99.90;;;;;;5045603;28;20029;-49
2024/02/02 05:06:16;;;;;;;20.00;10.65;;;9.60;99.90;;;;;;5046043;28;20028;-48
2024/02/02 05:08:45;;;;;;;20.10;10.73;;;9.60;99.90;;;;;;5045938;28;20037;-49
2024/02/02 05:11:13;;;;;;;23.58;10.32;;;9.70;99.90;;;;;;5047391;28;20423;-49
2024/02/02 05:13:39;;;;;;;19.13;10.65;;;9.60;99.90;;;;;;5047182;28;20025;-49
2024/02/02 05:16:05;;;;;;;20.85;10.23;;;9.70;99.90;;;;;;5045894;28;20089;-49
2024/02/02 05:18:30;;;;;;;22.23;10.75;;;9.70;99.90;;;;;;5045613;28;20036;-49
2024/02/02 05:20:56;;;;;;;20.33;10.30;;;9.60;99.90;;;;;;5047027;28;20363;-48
2024/02/02 05:23:23;;;;;;;22.13;11.45;;;9.60;99.90;;;;;;5046964;28;20037;-49
2024/02/02 05:25:49;;;;;;;22.58;10.75;;;9.60;99.90;;;;;;5046460;28;20025;-49
2024/02/02 05:28:14;;;;;;;19.33;10.82;;;9.60;99.90;;;;;;5063727;28;20051;-49
2024/02/02 05:30:40;;;;;;;17.10;10.27;;;9.60;99.90;;;;;;5066400;28;20029;-49
2024/02/02 05:33:05;;;;;;;23.83;10.90;;;9.60;99.90;;;;;;5065507;28;20037;-49
2024/02/02 05:35:31;;;;;;;20.02;10.75;;;9.60;99.90;;;;;;5066507;28;20029;-49
2024/02/02 05:37:58;;;;;;;22.92;11.13;;;9.60;99.90;;;;;;5066756;28;20043;-48
2024/02/02 05:40:23;;;;;;;23.58;10.35;;;9.60;99.90;;;;;;5048949;28;20032;-49
2024/02/02 05:42:50;;;;;;;22.25;11.02;;;9.60;99.90;;;;;;5066305;28;20052;-49
2024/02/02 05:45:16;;;;;;;24.13;11.02;;;9.60;99.90;;;;;;5066426;28;20032;-47
2024/02/02 05:47:41;;;;;;;29.33;10.48;;;9.60;99.90;;;;;;5065150;28;20025;-49
2024/02/02 05:50:07;;;;;;;29.40;12.23;;;9.60;99.90;;;;;;5048642;28;20094;-48
2024/02/02 05:52:33;;;;;;;28.50;11.82;;;9.70;99.90;;;;;;5065151;28;20025;-48
2024/02/02 05:54:58;;;;;;;30.60;12.07;;;9.60;99.90;;;;;;5065010;28;20048;-48
2024/02/02 05:57:24;;;;;;;26.38;11.57;;;9.60;99.90;;;;;;5066629;28;20021;-49
2024/02/02 05:59:49;;;;;;;36.20;11.60;;;9.60;99.90;;;;;;5066290;28;20496;-49
2024/02/02 06:02:15;;;;;;;33.50;12.85;;;9.60;99.90;;;;;;5048831;28;20031;-49
2024/02/02 06:04:40;;;;;;;28.65;13.07;;;9.60;99.90;;;;;;5065123;28;20085;-49
2024/02/02 06:07:06;;;;;;;25.33;12.13;;;9.60;99.90;;;;;;5064732;28;20017;-49
2024/02/02 06:09:32;;;;;;;25.85;11.98;;;9.60;99.90;;;;;;5064896;28;20033;-48
2024/02/02 06:11:57;;;;;;;28.10;13.07;;;9.60;99.90;;;;;;5048222;28;20025;-49
2024/02/02 06:14:25;;;;;;;25.40;12.48;;;9.60;99.90;;;;;;5064091;28;20055;-49
2024/02/02 06:16:51;;;;;;;34.35;12.52;;;9.60;99.90;;;;;;5064642;28;20035;-49
2024/02/02 06:19:16;;;;;;;32.72;12.82;;;9.60;99.90;;;;;;5064428;28;20082;-49
2024/02/02 06:21:42;;;;;;;24.02;11.23;;;9.60;99.90;;;;;;5064633;28;20477;-48
2024/02/02 06:24:08;;;;;;;30.33;12.98;;;9.60;99.90;;;;;;5064453;28;20029;-48
2024/02/02 06:26:36;;;;;;;32.90;12.82;;;9.60;99.90;;;;;;5065423;28;20052;-49
2024/02/02 06:29:02;;;;;;;28.42;13.10;;;9.60;99.90;;;;;;5079991;28;20039;-49
2024/02/02 06:31:28;;;;;;;43.03;13.68;;;9.60;99.90;;;;;;5064236;28;20033;-49
2024/02/02 06:33:54;;;;;;;37.47;13.13;;;9.60;99.90;;;;;;5064187;28;20082;-49
2024/02/02 06:36:24;;;;;;;41.67;13.10;;;9.60;99.90;;;;;;5065551;28;20059;-49
2024/02/02 06:38:53;;;;;;;30.27;13.10;;;9.60;99.90;;;;;;5065905;28;20033;-49
2024/02/02 06:41:19;;;;;;;37.63;13.00;;;9.60;99.90;;;;;;5064631;28;20017;-49
2024/02/02 06:43:47;;;;;;;33.97;13.07;;;9.60;99.90;;;;;;5065923;28;20044;-49
2024/02/02 06:46:13;;;;;;;36.60;13.50;;;9.60;99.90;;;;;;5080895;28;20017;-49
2024/02/02 06:48:38;;;;;;;30.13;12.20;;;9.60;99.90;;;;;;5065821;28;20056;-49
2024/02/02 06:51:04;;;;;;;32.67;14.05;;;9.60;99.90;;;;;;5064216;28;20432;-49
2024/02/02 06:53:30;;;;;;;38.22;14.15;;;9.60;99.90;;;;;;5065199;28;20485;-49
2024/02/02 06:55:55;;;;;;;48.72;14.82;;;9.60;99.90;;;;;;5064607;28;20032;-49
2024/02/02 06:58:41;;;;;;;91.43;18.23;;;9.60;99.90;;;;;;5064480;28;20040;-48
2024/02/02 07:01:08;;;;;;;84.47;17.98;;;9.60;99.90;;;;;;5064394;28;20032;-49
2024/02/02 07:03:34;;;;;;;57.65;15.05;;;9.60;99.90;;;;;;5047238;28;20414;-48
2024/02/02 07:06:00;;;;;;;55.65;14.98;;;9.60;99.90;;;;;;5064254;28;20021;-49
2024/02/02 07:08:25;;;;;;;52.20;15.75;;;9.60;99.90;;;;;;5062846;28;20045;-49
2024/02/02 07:11:15;;;;;;;57.25;14.93;;;9.60;99.90;;;;;;5071646;28;20083;-49
2024/02/02 07:13:46;;;;;;;43.88;14.73;;;9.60;99.90;;;;;;5049697;28;20041;-48
2024/02/02 07:16:29;;;;;;;52.55;14.45;;;9.60;99.90;;;;;;5062194;28;20029;-49
2024/02/02 07:18:55;;;;;;;41.55;13.85;;;9.60;99.90;;;;;;5046672;28;20033;-49
2024/02/02 07:21:28;;;;;;;43.60;14.32;;;9.60;99.90;;;;;;5062841;28;20071;-49
2024/02/02 07:23:54;;;;;;;46.08;14.57;;;9.60;99.90;;;;;;5064399;28;20034;-49
2024/02/02 07:26:40;;;;;;;58.83;16.02;;;9.60;99.90;;;;;;5060380;28;20039;-48
2024/02/02 07:29:11;;;;;;;57.45;15.23;;;9.60;99.90;;;;;;5061669;28;20108;-48
2024/02/02 07:31:38;;;;;;;47.90;14.85;;;9.60;99.90;;;;;;5062214;28;20071;-49
2024/02/02 07:34:29;;;;;;;44.05;15.27;;;9.60;99.90;;;;;;5064315;28;20051;-48
2024/02/02 07:36:55;;;;;;;34.88;13.10;;;9.60;99.90;;;;;;5053224;28;20036;-48
2024/02/02 07:39:28;;;;;;;32.97;13.10;;;9.60;99.90;;;;;;5061054;28;20033;-48
2024/02/02 07:41:54;;;;;;;42.70;13.88;;;9.60;99.90;;;;;;5038137;28;20017;-49
2024/02/02 07:44:19;;;;;;;49.42;14.10;;;9.60;99.90;;;;;;5065382;28;20044;-48
2024/02/02 07:46:45;;;;;;;44.55;13.38;;;9.60;99.90;;;;;;5061371;28;20029;-49
2024/02/02 07:49:10;;;;;;;63.55;15.70;;;9.60;99.90;;;;;;5052743;28;20097;-48
2024/02/02 07:51:39;;;;;;;56.90;15.30;;;9.60;99.90;;;;;;5055919;28;20040;-48
2024/02/02 07:54:05;;;;;;;49.88;14.27;;;9.60;99.90;;;;;;5059029;28;20044;-48
2024/02/02 07:56:30;;;;;;;45.05;15.05;;;9.60;99.90;;;;;;5060010;28;20029;-48
2024/02/02 07:58:58;;;;;;;45.03;14.07;;;9.60;99.90;;;;;;5057451;28;20037;-49
2024/02/02 08:01:24;;;;;;;43.33;13.85;;;9.70;99.90;;;;;;5059782;28;20017;-49
2024/02/02 08:03:51;;;;;;;49.22;13.68;;;9.60;99.90;;;;;;5054468;28;20462;-49
2024/02/02 08:06:16;;;;;;;52.90;14.00;;;9.70;99.90;;;;;;5052291;28;20033;-49
2024/02/02 08:08:42;;;;;;;47.20;14.15;;;9.70;99.90;;;;;;5067421;28;20033;-49
2024/02/02 08:11:07;;;;;;;34.90;13.65;;;9.70;99.90;;;;;;5069304;28;20423;-48
2024/02/02 08:13:33;;;;;;;45.78;13.35;;;9.70;99.90;;;;;;5068064;28;20037;-48
2024/02/02 08:15:59;;;;;;;57.50;16.23;;;9.70;99.90;;;;;;5084391;28;20028;-49
2024/02/02 08:18:26;;;;;;;43.70;14.55;;;9.70;99.90;;;;;;5066496;28;20041;-48
2024/02/02 08:20:51;;;;;;;47.17;13.85;;;9.70;99.90;;;;;;5067966;28;20047;-49
2024/02/02 08:23:17;;;;;;;39.75;14.30;;;9.70;99.90;;;;;;5087066;28;20028;-48
2024/02/02 08:25:42;;;;;;;44.17;14.27;;;9.70;99.90;;;;;;5064874;28;20048;-49
2024/02/02 08:28:08;;;;;;;51.90;14.40;;;9.70;99.90;;;;;;5067802;28;20033;-48
2024/02/02 08:30:34;;;;;;;57.17;15.57;;;9.70;99.90;;;;;;5066720;28;20025;-49
2024/02/02 08:33:00;;;;;;;243.77;31.38;;;9.70;99.90;;;;;;5064011;28;20084;-49
2024/02/02 08:35:25;;;;;;;159.00;23.42;;;9.70;99.90;;;;;;5058121;28;20055;-48
2024/02/02 08:37:54;;;;;;;132.25;23.75;;;9.80;99.90;;;;;;5047866;28;20067;-49
2024/02/02 08:40:31;;;;;;;121.20;21.27;;;9.80;99.90;;;;;;5041857;28;20037;-49
2024/02/02 08:42:57;;;;;;;134.82;21.63;;;9.80;99.90;;;;;;5064197;28;20089;-49
2024/02/02 08:45:34;;;;;;;143.10;21.95;;;9.80;99.90;;;;;;5066491;28;20081;-48
2024/02/02 08:48:00;;;;;;;84.80;17.50;;;9.80;99.90;;;;;;5065508;28;20032;-48
2024/02/02 08:50:25;;;;;;;204.02;27.63;;;9.80;99.90;;;;;;5034035;28;20021;-48
2024/02/02 08:52:51;;;;;;;153.15;22.65;;;9.90;99.90;;;;;;5059101;28;20037;-49
2024/02/02 08:55:44;;;;;;;110.70;21.33;;;9.90;99.90;;;;;;5065142;28;20021;-48
2024/02/02 08:58:15;;;;;;;269.92;34.70;;;9.90;99.90;;;;;;5057025;28;20045;-48
2024/02/02 09:00:41;;;;;;;186.50;28.20;;;9.90;99.90;;;;;;5065011;28;20029;-49
2024/02/02 09:03:13;;;;;;;163.82;24.08;;;10.00;99.90;;;;;;5056318;28;20032;-49
2024/02/02 09:06:07;;;;;;;173.27;25.38;;;10.00;99.90;;;;;;5053871;28;20048;-48
2024/02/02 09:08:35;;;;;;;176.25;27.88;;;10.00;99.90;;;;;;5052863;28;20027;-48
2024/02/02 09:11:02;;;;;;;269.17;33.47;;;10.00;99.90;;;;;;5055718;28;20033;-49
2024/02/02 09:13:32;;;;;;;241.02;32.08;;;10.10;99.90;;;;;;5049628;28;20060;-49
2024/02/02 09:15:58;;;;;;;244.82;32.55;;;10.10;99.90;;;;;;5056882;28;20052;-49
2024/02/02 09:18:29;;;;;;;252.77;33.53;;;10.10;99.90;;;;;;5063043;28;20040;-48
2024/02/02 09:20:55;;;;;;;234.63;32.05;;;10.10;99.90;;;;;;5067110;28;20485;-48
2024/02/02 09:23:20;;;;;;;264.42;34.95;;;10.20;99.90;;;;;;5065992;28;20032;-49
2024/02/02 09:25:46;;;;;;;235.02;30.30;;;10.20;99.90;;;;;;5060931;28;20030;-49
2024/02/02 09:28:38;;;;;;;147.68;24.65;;;10.20;99.90;;;;;;5042617;28;20033;-49
2024/02/02 09:31:06;;;;;;;162.77;25.83;;;10.20;99.90;;;;;;5070105;28;20025;-48
2024/02/02 09:33:32;;;;;;;216.23;28.75;;;10.20;99.90;;;;;;5072851;28;20108;-49
2024/02/02 09:35:58;;;;;;;204.93;30.83;;;10.20;99.90;;;;;;5064698;28;20021;-49
2024/02/02 09:38:24;;;;;;;318.67;42.38;;;10.20;99.90;;;;;;5029956;28;20025;-48
2024/02/02 09:41:05;;;;;;;205.82;31.02;;;10.20;99.90;;;;;;5056726;28;20039;-49
2024/02/02 09:43:46;;;;;;;174.55;28.33;;;10.20;99.90;;;;;;5062310;28;20028;-48
2024/02/02 09:46:21;;;;;;;183.55;28.65;;;10.20;99.90;;;;;;5065582;28;20021;-49
2024/02/02 09:49:28;;;;;;;179.55;27.85;;;10.30;99.90;;;;;;5060636;28;20029;-49
2024/02/02 09:52:18;;;;;;;200.68;29.75;;;10.30;99.90;;;;;;5061452;28;20424;-49
2024/02/02 09:54:48;;;;;;;161.35;25.83;;;10.30;99.90;;;;;;5064004;28;20037;-49
2024/02/02 09:57:31;;;;;;;200.82;27.40;;;10.30;99.90;;;;;;5047555;28;20021;-48
2024/02/02 10:00:32;;;;;;;162.50;28.10;;;10.40;99.90;;;;;;5064645;28;20049;-49
2024/02/02 10:03:19;;;;;;;223.10;31.40;;;10.40;99.90;;;;;;5066953;28;20045;-48
2024/02/02 10:06:13;;;;;;;169.68;27.58;;;10.40;99.90;;;;;;5076026;28;20096;-49
2024/02/02 10:08:52;;;;;;;120.47;21.75;;;10.40;99.90;;;;;;5065018;28;20151;-48
2024/02/02 10:11:41;;;;;;;123.72;22.50;;;10.50;99.90;;;;;;5063725;28;20107;-49
2024/02/02 10:14:09;;;;;;;435.80;49.45;;;10.50;99.90;;;;;;5054423;28;20041;-48
2024/02/02 10:16:42;;;;;;;276.88;36.10;;;10.50;99.90;;;;;;5065701;28;20204;-49
2024/02/02 10:19:22;;;;;;;269.42;32.40;;;10.50;99.90;;;;;;5081626;28;20073;-49
2024/02/02 10:22:25;;;;;;;193.77;31.02;;;10.50;99.90;;;;;;5083080;28;20047;-48
2024/02/02 10:25:20;;;;;;;181.27;28.63;;;10.60;99.90;;;;;;5046133;28;20039;-49
2024/02/02 10:27:58;;;;;;;170.98;27.13;;;10.60;99.90;;;;;;5043300;28;20034;-49
2024/02/02 10:30:36;;;;;;;151.52;26.20;;;10.60;99.90;;;;;;5045781;28;20022;-49
2024/02/02 10:33:10;;;;;;;161.05;28.08;;;10.70;99.90;;;;;;5064072;28;20124;-49
2024/02/02 10:35:53;;;;;;;167.02;25.52;;;10.70;99.90;;;;;;5065269;28;20033;-49
2024/02/02 10:38:36;;;;;;;164.20;26.92;;;10.80;99.90;;;;;;5060439;28;20082;-48
2024/02/02 10:41:15;;;;;;;206.30;28.95;;;10.80;99.90;;;;;;5059792;28;20029;-49
2024/02/02 10:44:13;;;;;;;203.43;29.13;;;10.80;99.90;;;;;;5063290;28;20033;-49
2024/02/02 10:46:49;;;;;;;171.70;28.63;;;10.80;99.90;;;;;;5065207;28;20036;-49
2024/02/02 10:49:31;;;;;;;226.77;30.20;;;10.90;99.90;;;;;;5080244;28;20030;-49
2024/02/02 10:52:16;;;;;;;282.83;35.78;;;10.90;99.90;;;;;;5063579;28;20144;-49
2024/02/02 10:54:56;;;;;;;252.13;33.97;;;11.00;99.90;;;;;;5068583;28;20040;-49
2024/02/02 10:57:36;;;;;;;290.00;34.88;;;11.00;99.90;;;;;;5059304;28;20028;-49
2024/02/02 11:00:13;;;;;;;269.13;37.55;;;11.00;99.90;;;;;;5059386;28;20025;-49
2024/02/02 11:03:12;;;;;;;210.95;32.50;;;11.00;99.90;;;;;;5046394;28;20034;-48
2024/02/02 11:05:51;;;;;;;269.98;33.05;;;11.10;99.90;;;;;;5063589;28;20025;-48
2024/02/02 11:08:19;;;;;;;283.23;35.45;;;11.10;99.90;;;;;;5066163;28;20025;-49
2024/02/02 11:10:54;;;;;;;250.57;33.40;;;11.10;99.90;;;;;;5064531;28;20669;-49
2024/02/02 11:13:19;;;;;;;210.10;30.08;;;11.20;99.90;;;;;;5059690;28;20077;-49
2024/02/02 11:16:04;;;;;;;186.10;26.42;;;11.20;99.90;;;;;;5065896;28;20032;-49
2024/02/02 11:18:38;;;;;;;178.35;28.83;;;11.30;99.90;;;;;;5041898;28;20094;-49
2024/02/02 11:21:21;;;;;;;210.25;27.42;;;11.30;99.90;;;;;;5059408;28;20033;-47
2024/02/02 11:24:02;;;;;;;268.15;33.63;;;11.30;99.90;;;;;;5061322;28;20029;-49
2024/02/02 11:26:39;;;;;;;164.95;24.50;;;11.30;99.90;;;;;;5059257;28;20516;-49
2024/02/02 11:29:11;;;;;;;219.77;30.10;;;11.40;99.90;;;;;;5067851;28;20078;-49
2024/02/02 11:32:21;;;;;;;184.25;26.25;;;11.40;99.90;;;;;;5056165;28;20028;-49
2024/02/02 11:34:50;;;;;;;239.60;29.83;;;11.40;99.90;;;;;;5058695;28;20108;-49
2024/02/02 11:37:26;;;;;;;204.07;26.80;;;11.50;99.90;;;;;;5066008;28;20050;-49
2024/02/02 11:39:58;;;;;;;195.48;25.98;;;11.50;99.90;;;;;;5052108;28;20029;-49
2024/02/02 11:42:25;;;;;;;206.25;27.05;;;11.60;99.90;;;;;;5046274;28;20030;-49
2024/02/02 11:44:52;;;;;;;194.05;26.83;;;11.60;99.90;;;;;;5064595;28;20029;-49
2024/02/02 11:47:19;;;;;;;224.98;27.02;;;11.60;99.90;;;;;;5068082;28;20048;-49
2024/02/02 11:49:46;;;;;;;200.63;24.50;;;11.60;99.90;;;;;;5075490;28;20046;-49
2024/02/02 11:52:50;;;;;;;149.30;19.33;;;11.70;99.90;;;;;;5072538;28;20029;-49
2024/02/02 11:55:17;;;;;;;267.80;28.02;;;11.70;99.90;;;;;;5053068;28;20037;-50
2024/02/02 11:57:47;;;;;;;209.13;24.52;;;11.70;99.90;;;;;;5055571;28;20044;-49
2024/02/02 12:00:16;;;;;;;236.00;27.27;;;11.70;99.90;;;;;;5017466;28;20533;-49
2024/02/02 12:03:14;;;;;;;222.85;25.92;;;11.80;99.90;;;;;;5047813;28;20036;-49
2024/02/02 12:06:08;;;;;;;273.73;29.40;;;11.80;99.90;;;;;;5063229;28;20108;-50
2024/02/02 12:08:38;;;;;;;209.07;23.58;;;11.80;99.90;;;;;;5055285;28;20033;-49
2024/02/02 12:11:04;;;;;;;209.20;23.83;;;11.80;99.90;;;;;;5050909;28;20037;-49
2024/02/02 12:13:31;;;;;;;208.57;25.58;;;11.80;99.90;;;;;;5034937;28;20036;-49
2024/02/02 12:15:57;;;;;;;192.52;23.35;;;11.80;99.90;;;;;;5072356;28;20081;-49
2024/02/02 12:18:23;;;;;;;172.00;24.50;;;11.90;99.90;;;;;;5047498;28;20033;-49
2024/02/02 12:20:49;;;;;;;253.20;29.88;;;11.90;99.90;;;;;;5058274;28;20040;-49
2024/02/02 12:23:14;;;;;;;253.75;26.30;;;11.90;99.90;;;;;;5054971;28;20067;-49
2024/02/02 12:25:40;;;;;;;170.85;21.67;;;11.90;99.90;;;;;;5059024;28;20507;-49
2024/02/02 12:28:07;;;;;;;144.30;18.90;;;11.90;99.90;;;;;;5046547;28;20033;-49
2024/02/02 12:30:32;;;;;;;151.05;18.77;;;11.90;99.90;;;;;;5070343;28;20025;-49
2024/02/02 12:32:58;;;;;;;230.75;24.95;;;12.00;99.90;;;;;;5062860;28;20293;-49
2024/02/02 12:35:24;;;;;;;184.63;21.05;;;12.00;99.90;;;;;;5046063;28;20037;-49
2024/02/02 12:37:50;;;;;;;190.50;22.35;;;11.90;99.90;;;;;;5048975;28;20618;-49
2024/02/02 12:40:19;;;;;;;167.05;20.38;;;12.00;99.90;;;;;;5046579;28;20040;-50